NCAR-RAP Real-Time Weather Data

Output produced by METARs form (17 October 2018  15:53 UTC)
found at http://weather.rap.ucar.edu/surface/
 
RJCH 171100Z 02004KT 9999 FEW020 BKN050 08/05 Q1014
RJCH 171000Z 02004KT 9999 FEW020 BKN050 09/05 Q1014
RJCH 170900Z 02004KT 9999 FEW025 SCT050 10/03 Q1014
RJCH 170800Z 31007KT 9999 FEW025 SCT045 12/03 Q1013
RJCH 170700Z 31012KT 9999 FEW025 SCT045 BKN050 14/03 Q1013
RJCH 170600Z 27013KT 9999 FEW025 SCT045 14/03 Q1012
RJCH 170500Z 27011KT 9999 FEW025 SCT050 15/03 Q1012
RJCH 170400Z 27010KT 9999 FEW020 SCT050 14/02 Q1012
RJCH 170300Z 27011KT 240V310 9999 FEW030 SCT050 15/04 Q1012
RJCH 170200Z 26011KT 9999 FEW020 SCT040 14/03 Q1013
RJCH 170100Z 32007KT 270V040 9999 FEW040 SCT060 13/03 Q1013
RJCH 170000Z 30007KT 9999 FEW030 12/03 Q1013
RJCH 162300Z 34003KT 300V020 9999 FEW040 SCT/// 09/04 Q1013
RJCH 162200Z 01006KT 9999 FEW040 SCT/// 05/03 Q1013
RJCH 162110Z 36005KT 9999 FEW040 SCT/// 04/03 Q1012 RMK 1CU040 A2991
RJCH 161100Z 01005KT 9999 FEW020 SCT045 09/06 Q1012
RJCH 161000Z 35004KT 310V020 9999 FEW025 SCT/// 12/06 Q1012
RJCH 160900Z 29005KT 9999 FEW025 SCT/// 13/06 Q1013
RJCH 160800Z 31008KT 9999 FEW025 SCT030 BKN/// 15/06 Q1012
RJCH 160700Z 27011KT 240V300 9999 FEW030 SCT040 BKN/// 16/05 Q1012
RJCH 160600Z 27014KT 9999 FEW040 SCT/// 18/05 Q1011
RJCH 160500Z 26013KT 9999 FEW040 SCT060 18/04 Q1011
RJCH 160400Z 23012KT 9999 FEW040 SCT060 19/06 Q1011
RJCH 160300Z 24008KT 200V270 9999 FEW030 SCT040 18/08 Q1012
RJCH 160200Z 24008KT 9999 FEW030 SCT050 18/10 Q1013
RJCH 160100Z 21004KT 180V270 9999 FEW020 SCT040 16/11 Q1013
RJCH 160000Z VRB02KT 9999 FEW030 SCT040 16/12 Q1014
RJCH 152300Z 03003KT 9999 FEW040 SCT070 13/12 Q1014
RJCH 152200Z 02003KT 9999 FEW040 SCT080 12/11 Q1014
RJCH 152110Z 02004KT 9999 FEW005 SCT070 11/10 Q1014 RMK 1ST005 4AC070 A2995
RJCH 151100Z 02004KT 330V080 9999 FEW025 SCT040 BKN050 11/09 Q1016
RJCH 151000Z 04004KT 9999 FEW020 SCT/// 12/09 Q1016
RJCH 150900Z 01005KT 9999 FEW030 SCT/// 14/09 Q1016
RJCH 150800Z 26008KT 9999 FEW020 SCT050 17/08 Q1016
RJCH 150700Z 23010KT 9999 FEW035 BKN050 18/08 Q1016
RJCH 150600Z 22009KT 9999 FEW030 BKN050 18/08 Q1016
RJCH 150500Z 21009KT 180V240 9999 FEW040 SCT060 BKN/// 18/09 Q1016
RJCH 150400Z 21007KT 9999 FEW025 SCT040 BKN/// 18/09 Q1016